Time;durP1;ratioP1;P1;durP2;ratioP2;P2;SDS_P1;SDS_P2;PMS_P1;PMS_P2;Temp;Humidity;BMP_temperature;BMP_pressure;BME280_temperature;BME280_humidity;BME280_pressure;Samples;Min_cycle;Max_cycle;Signal;HPM_P1;HPM_P2
2023/05/14 00:02:18;;;;;;;;;49.00;38.00;;;;;-143.57;100.00;65101.44;5119515;27;45323;-41
2023/05/14 00:04:43;;;;;;;;;41.33;37.00;;;;;-143.57;100.00;65101.44;5119583;27;45450;-40
2023/05/14 00:07:08;;;;;;;;;44.67;36.33;;;;;-143.57;100.00;65101.44;5119208;27;46712;-41
2023/05/14 00:09:34;;;;;;;;;52.25;42.00;;;;;-143.57;100.00;65101.44;5119163;27;45183;-40
2023/05/14 00:12:00;;;;;;;;;43.00;37.33;;;;;-143.57;100.00;65101.44;5119121;27;45315;-42
2023/05/14 00:14:25;;;;;;;;;42.67;35.00;;;;;-143.57;100.00;65101.44;5119208;27;45280;-41
2023/05/14 00:16:51;;;;;;;;;46.67;38.33;;;;;-143.57;100.00;65101.44;5119125;27;46249;-40
2023/05/14 00:19:21;;;;;;;;;44.67;36.33;;;;;-143.57;100.00;65101.44;5118977;27;45330;-41
2023/05/14 00:21:47;;;;;;;;;48.33;37.67;;;;;-143.57;100.00;65101.44;5119177;27;45424;-42
2023/05/14 00:24:12;;;;;;;;;49.00;38.00;;;;;-143.57;100.00;65101.44;5119269;27;45431;-41
2023/05/14 00:26:37;;;;;;;;;51.75;40.00;;;;;-143.57;100.00;65101.44;5118856;27;45479;-40
2023/05/14 00:29:03;;;;;;;;;52.33;39.33;;;;;-143.57;100.00;65101.44;5118667;27;45420;-41
2023/05/14 00:31:31;;;;;;;;;54.75;41.75;;;;;-143.57;100.00;65101.44;5118992;27;45404;-41
2023/05/14 00:33:58;;;;;;;;;52.33;39.33;;;;;-143.57;100.00;65101.44;5118933;27;45492;-41
2023/05/14 00:36:24;;;;;;;;;44.33;38.00;;;;;-143.57;100.00;65101.44;5118738;27;45576;-40
2023/05/14 00:38:52;;;;;;;;;52.33;42.00;;;;;-143.57;100.00;65101.44;5118970;27;45255;-41
2023/05/14 00:41:17;;;;;;;;;56.00;42.33;;;;;-143.57;100.00;65101.44;5118884;27;45504;-41
2023/05/14 00:43:43;;;;;;;;;50.67;40.33;;;;;-143.57;100.00;65101.44;5118953;27;45267;-41
2023/05/14 00:46:08;;;;;;;;;58.25;44.00;;;;;-143.57;100.00;65101.44;5118669;27;45996;-40
2023/05/14 00:48:34;;;;;;;;;53.50;40.50;;;;;-143.57;100.00;65101.44;5117423;27;45441;-41
2023/05/14 00:51:00;;;;;;;;;53.50;37.75;;;;;-143.57;100.00;65101.44;5117814;27;45450;-41
2023/05/14 00:53:26;;;;;;;;;52.50;41.75;;;;;-143.57;100.00;65101.44;5118823;27;45210;-41
2023/05/14 00:55:52;;;;;;;;;44.33;38.33;;;;;-143.57;100.00;65101.44;5117240;27;46400;-42
2023/05/14 00:58:18;;;;;;;;;53.00;39.50;;;;;-143.57;100.00;65101.44;5099867;27;45394;-41
2023/05/14 01:00:43;;;;;;;;;57.25;43.00;;;;;-143.57;100.00;65101.44;5118383;27;45263;-41
2023/05/14 01:03:09;;;;;;;;;50.50;39.00;;;;;-143.57;100.00;65101.44;5118783;27;46374;-42
2023/05/14 01:05:50;;;;;;;;;54.00;40.00;;;;;-143.57;100.00;65101.44;5118288;27;46184;-41
2023/05/14 01:08:26;;;;;;;;;55.75;41.00;;;;;-143.57;100.00;65101.44;5118428;27;45342;-41
2023/05/14 01:11:02;;;;;;;;;49.67;39.00;;;;;-143.57;100.00;65101.44;5118374;27;45243;-41
2023/05/14 01:13:40;;;;;;;;;56.00;42.25;;;;;-143.57;100.00;65101.44;5118216;27;45413;-41
2023/05/14 01:16:11;;;;;;;;;51.50;40.50;;;;;-143.57;100.00;65101.44;5117930;27;46841;-41
2023/05/14 01:18:39;;;;;;;;;55.75;42.25;;;;;-143.57;100.00;65101.44;5118128;27;45334;-41
2023/05/14 01:21:16;;;;;;;;;52.75;41.00;;;;;-143.57;100.00;65101.44;5118102;27;45306;-41
2023/05/14 01:23:42;;;;;;;;;55.50;41.00;;;;;-143.57;100.00;65101.44;5118324;27;45231;-41
2023/05/14 01:26:07;;;;;;;;;56.25;43.75;;;;;-143.57;100.00;65101.44;5117763;27;45462;-41
2023/05/14 01:28:36;;;;;;;;;55.00;43.25;;;;;-143.57;100.00;65101.44;5117665;27;45270;-41
2023/05/14 01:31:07;;;;;;;;;54.00;42.50;;;;;-143.57;100.00;65101.44;5118341;27;45427;-41
2023/05/14 01:33:34;;;;;;;;;53.25;41.25;;;;;-143.57;100.00;65101.44;5117645;27;45301;-41
2023/05/14 01:36:00;;;;;;;;;54.00;43.25;;;;;-143.57;100.00;65101.44;5117847;27;46344;-41
2023/05/14 01:38:29;;;;;;;;;57.00;42.75;;;;;-143.57;100.00;65101.44;5116924;27;45314;-40
2023/05/14 01:40:56;;;;;;;;;55.50;41.25;;;;;-143.57;100.00;65101.44;5117717;27;45546;-40
2023/05/14 01:43:22;;;;;;;;;56.25;43.50;;;;;-143.57;100.00;65101.44;5118051;27;45507;-39
2023/05/14 01:45:47;;;;;;;;;50.75;41.75;;;;;-143.57;100.00;65101.44;5098932;27;45963;-40
2023/05/14 01:48:14;;;;;;;;;60.25;44.50;;;;;-143.57;100.00;65101.44;5117366;27;45515;-40
2023/05/14 01:50:40;;;;;;;;;55.75;43.75;;;;;-143.57;100.00;65101.44;5117684;27;45243;-40
2023/05/14 01:53:05;;;;;;;;;51.00;39.00;;;;;-143.57;100.00;65101.44;5117957;27;45266;-42
2023/05/14 01:55:31;;;;;;;;;54.00;41.67;;;;;-143.57;100.00;65101.44;5117620;27;46269;-42
2023/05/14 01:57:56;;;;;;;;;54.25;44.00;;;;;-143.57;100.00;65101.44;5117691;27;45463;-40
2023/05/14 02:00:24;;;;;;;;;58.25;43.00;;;;;-143.57;100.00;65101.44;5117445;27;45317;-40
2023/05/14 02:02:49;;;;;;;;;52.75;41.25;;;;;-143.57;100.00;65101.44;5117723;27;45553;-41
2023/05/14 02:05:14;;;;;;;;;55.75;41.25;;;;;-143.57;100.00;65101.44;5117225;27;45431;-41
2023/05/14 02:07:39;;;;;;;;;55.50;42.75;;;;;-143.57;100.00;65101.44;5117309;27;45555;-48
2023/05/14 02:10:06;;;;;;;;;59.00;43.25;;;;;-143.57;100.00;65101.44;5117386;27;45302;-41
2023/05/14 02:12:31;;;;;;;;;57.00;40.75;;;;;-143.57;100.00;65101.44;5117415;27;45455;-41
2023/05/14 02:14:56;;;;;;;;;55.50;41.50;;;;;-143.57;100.00;65101.44;5116970;27;46240;-41
2023/05/14 02:17:25;;;;;;;;;53.25;43.00;;;;;-143.57;100.00;65101.44;5117415;27;46945;-41
2023/05/14 02:19:51;;;;;;;;;55.25;43.50;;;;;-143.57;100.00;65101.44;5117430;27;45408;-40
2023/05/14 02:22:16;;;;;;;;;56.00;44.25;;;;;-143.57;100.00;65101.44;5117266;27;45317;-40
2023/05/14 02:24:42;;;;;;;;;52.50;43.75;;;;;-143.57;100.00;65101.44;5117038;27;45534;-40
2023/05/14 02:27:07;;;;;;;;;55.00;44.25;;;;;-143.57;100.00;65101.44;5117173;27;45405;-40
2023/05/14 02:29:32;;;;;;;;;58.00;44.75;;;;;-143.57;100.00;65101.44;5117221;27;45283;-41
2023/05/14 02:31:58;;;;;;;;;54.75;42.75;;;;;-143.57;100.00;65101.44;5117479;27;45227;-41
2023/05/14 02:34:23;;;;;;;;;60.50;46.25;;;;;-143.57;100.00;65101.44;5116357;27;52806;-41
2023/05/14 02:36:49;;;;;;;;;57.50;43.75;;;;;-143.57;100.00;65101.44;5116976;27;45523;-41
2023/05/14 02:39:14;;;;;;;;;51.75;43.75;;;;;-143.57;100.00;65101.44;5117441;27;45699;-41
2023/05/14 02:41:39;;;;;;;;;54.00;43.00;;;;;-143.57;100.00;65101.44;5117228;27;45424;-41
2023/05/14 02:44:05;;;;;;;;;57.75;43.00;;;;;-143.57;100.00;65101.44;5116785;27;48365;-41
2023/05/14 02:46:31;;;;;;;;;59.00;43.00;;;;;-143.57;100.00;65101.44;5116709;27;45428;-41
2023/05/14 02:48:57;;;;;;;;;53.25;43.00;;;;;-143.57;100.00;65101.44;5118239;27;45345;-41
2023/05/14 02:51:22;;;;;;;;;57.75;43.50;;;;;-143.57;100.00;65101.44;5120895;27;45382;-40
2023/05/14 02:53:47;;;;;;;;;59.00;43.75;;;;;-143.57;100.00;65101.44;5120132;27;46975;-41
2023/05/14 02:56:13;;;;;;;;;53.00;43.25;;;;;-143.57;100.00;65101.44;5120526;27;45540;-40
2023/05/14 02:58:38;;;;;;;;;56.00;40.25;;;;;-143.57;100.00;65101.44;5120431;27;45411;-41
2023/05/14 03:01:04;;;;;;;;;47.00;39.33;;;;;-143.57;100.00;65101.44;5120525;27;45444;-40
2023/05/14 03:03:29;;;;;;;;;53.33;35.67;;;;;-143.57;100.00;65101.44;5120004;27;45675;-40
2023/05/14 03:05:55;;;;;;;;;58.75;41.50;;;;;-143.57;100.00;65101.44;5120057;27;45572;-41
2023/05/14 03:08:20;;;;;;;;;52.25;41.00;;;;;-143.57;100.00;65101.44;5120181;27;45344;-40
2023/05/14 03:10:45;;;;;;;;;47.00;35.00;;;;;-143.57;100.00;65101.44;5120275;27;45570;-41
2023/05/14 03:13:11;;;;;;;;;52.25;40.50;;;;;-143.57;100.00;65101.44;5119956;27;46085;-40
2023/05/14 03:15:36;;;;;;;;;52.67;37.33;;;;;-143.57;100.00;65101.44;5120065;27;45320;-41
2023/05/14 03:18:02;;;;;;;;;53.33;39.00;;;;;-143.57;100.00;65101.44;5120054;27;45342;-40
2023/05/14 03:20:27;;;;;;;;;43.67;37.33;;;;;-143.57;100.00;65101.44;5120380;27;45255;-41
2023/05/14 03:22:53;;;;;;;;;53.67;39.67;;;;;-143.57;100.00;65101.44;5119845;27;46192;-41
2023/05/14 03:25:18;;;;;;;;;38.67;34.67;;;;;-143.57;100.00;65101.44;5119957;27;45326;-41
2023/05/14 03:27:44;;;;;;;;;37.00;35.00;;;;;-143.57;100.00;65101.44;5119778;27;45293;-40
2023/05/14 03:30:10;;;;;;;;;43.33;34.00;;;;;-143.57;100.00;65101.44;5119974;27;45447;-40
2023/05/14 03:32:36;;;;;;;;;50.33;38.00;;;;;-143.57;100.00;65101.44;5119565;27;46075;-41
2023/05/14 03:35:02;;;;;;;;;57.00;39.00;;;;;-143.57;100.00;65101.44;5119880;27;45410;-41
2023/05/14 03:37:27;;;;;;;;;48.25;39.00;;;;;-143.57;100.00;65101.44;5119708;27;45311;-40
2023/05/14 03:39:52;;;;;;;;;47.00;41.75;;;;;-143.57;100.00;65101.44;5120162;27;45356;-40
2023/05/14 03:42:18;;;;;;;;;51.00;38.00;;;;;-143.57;100.00;65101.44;5119512;27;46164;-40
2023/05/14 03:44:43;;;;;;;;;42.00;38.50;;;;;-143.57;100.00;65101.44;5119400;27;45456;-40
2023/05/14 03:47:09;;;;;;;;;40.00;36.33;;;;;-143.57;100.00;65101.44;5119673;27;45296;-40
2023/05/14 03:49:34;;;;;;;;;54.25;38.00;;;;;-143.57;100.00;65101.44;5119568;27;45405;-41
2023/05/14 03:52:00;;;;;;;;;49.00;38.00;;;;;-143.57;100.00;65101.44;5119594;27;49666;-41
2023/05/14 03:54:25;;;;;;;;;44.50;37.75;;;;;-143.57;100.00;65101.44;5119413;27;45483;-41
2023/05/14 03:56:51;;;;;;;;;49.00;35.33;;;;;-143.57;100.00;65101.44;5119524;27;45389;-41
2023/05/14 03:59:16;;;;;;;;;51.50;38.25;;;;;-143.57;100.00;65101.44;5119712;27;45368;-40
2023/05/14 04:01:43;;;;;;;;;45.33;36.33;;;;;-143.57;100.00;65101.44;5118608;27;45346;-40
2023/05/14 04:04:08;;;;;;;;;51.25;39.25;;;;;-143.57;100.00;65101.44;5119460;27;45333;-40
2023/05/14 04:06:33;;;;;;;;;52.00;39.00;;;;;-143.57;100.00;65101.44;5119577;27;45266;-40
2023/05/14 04:08:59;;;;;;;;;45.75;37.50;;;;;-143.57;100.00;65101.44;5119544;27;45303;-41
2023/05/14 04:11:24;;;;;;;;;53.50;39.50;;;;;-143.57;100.00;65101.44;5119107;27;46005;-41
2023/05/14 04:13:49;;;;;;;;;49.50;38.75;;;;;-143.57;100.00;65101.44;5119094;27;45388;-40
2023/05/14 04:16:15;;;;;;;;;58.25;41.25;;;;;-143.57;100.00;65101.44;5118980;27;45742;-41
2023/05/14 04:18:40;;;;;;;;;49.50;38.75;;;;;-143.57;100.00;65101.44;5119512;27;45379;-41
2023/05/14 04:21:05;;;;;;;;;53.25;41.00;;;;;-143.57;100.00;65101.44;5119007;27;46106;-41
2023/05/14 04:23:31;;;;;;;;;48.00;41.00;;;;;-143.57;100.00;65101.44;5118977;27;45403;-40
2023/05/14 04:25:57;;;;;;;;;61.25;46.00;;;;;-143.57;100.00;65101.44;5119195;27;45407;-41
2023/05/14 04:28:22;;;;;;;;;63.75;49.00;;;;;-143.57;100.00;65101.44;5119203;27;45377;-40
2023/05/14 04:30:48;;;;;;;;;49.75;41.25;;;;;-143.57;100.00;65101.44;5118767;27;45491;-39
2023/05/14 04:33:13;;;;;;;;;53.00;40.75;;;;;-143.57;100.00;65101.44;5118683;27;45806;-40
2023/05/14 04:35:39;;;;;;;;;44.75;39.00;;;;;-143.57;100.00;65101.44;5119068;27;45501;-41
2023/05/14 04:38:04;;;;;;;;;55.75;41.25;;;;;-143.57;100.00;65101.44;5119097;27;45573;-40
2023/05/14 04:40:31;;;;;;;;;55.25;44.25;;;;;-143.57;100.00;65101.44;5118794;27;46086;-41
2023/05/14 04:42:56;;;;;;;;;59.75;43.00;;;;;-143.57;100.00;65101.44;5118738;27;45298;-41
2023/05/14 04:45:22;;;;;;;;;54.00;41.25;;;;;-143.57;100.00;65101.44;5118682;27;45315;-41
2023/05/14 04:47:48;;;;;;;;;56.25;38.75;;;;;-143.57;100.00;65101.44;5118958;27;45231;-40
2023/05/14 04:50:13;;;;;;;;;44.50;36.25;;;;;-143.57;100.00;65101.44;5118256;27;45503;-41
2023/05/14 04:52:39;;;;;;;;;50.67;33.67;;;;;-143.57;100.00;65101.44;5118705;27;45595;-41
2023/05/14 04:55:05;;;;;;;;;54.00;38.00;;;;;-143.57;100.00;65101.44;5118608;27;45743;-41
2023/05/14 04:57:30;;;;;;;;;60.00;41.50;;;;;-143.57;100.00;65101.44;5118762;27;45852;-41
2023/05/14 04:59:55;;;;;;;;;52.00;41.25;;;;;-143.57;100.00;65101.44;5118351;27;46952;-41
2023/05/14 05:02:21;;;;;;;;;63.00;44.00;;;;;-143.57;100.00;65101.44;5118184;27;45349;-41
2023/05/14 05:04:46;;;;;;;;;56.25;39.00;;;;;-143.57;100.00;65101.44;5118578;27;45376;-40
2023/05/14 05:07:12;;;;;;;;;54.50;42.50;;;;;-143.57;100.00;65101.44;5118522;27;45490;-40
2023/05/14 05:09:38;;;;;;;;;61.00;45.00;;;;;-143.57;100.00;65101.44;5118115;27;47212;-40
2023/05/14 05:12:04;;;;;;;;;55.50;42.00;;;;;-143.57;100.00;65101.44;5116995;27;45441;-40
2023/05/14 05:14:29;;;;;;;;;60.00;46.50;;;;;-143.57;100.00;65101.44;5118325;27;45467;-40
2023/05/14 05:16:54;;;;;;;;;51.50;42.25;;;;;-143.57;100.00;65101.44;5118318;27;45453;-40
2023/05/14 05:19:20;;;;;;;;;58.50;40.75;;;;;-143.57;100.00;65101.44;5118014;27;45409;-40
2023/05/14 05:21:45;;;;;;;;;55.00;41.75;;;;;-143.57;100.00;65101.44;5118362;27;45511;-40
2023/05/14 05:24:12;;;;;;;;;53.25;39.50;;;;;-143.57;100.00;65101.44;5118109;27;45228;-40
2023/05/14 05:26:37;;;;;;;;;60.50;43.25;;;;;-143.57;100.00;65101.44;5099755;27;45421;-40
2023/05/14 05:29:03;;;;;;;;;54.75;39.50;;;;;-143.57;100.00;65101.44;5117671;27;45300;-41
2023/05/14 05:31:29;;;;;;;;;53.50;39.75;;;;;-143.57;100.00;65101.44;5117815;27;45489;-40
2023/05/14 05:33:55;;;;;;;;;58.75;43.50;;;;;-143.57;100.00;65101.44;5117734;27;45311;-40
2023/05/14 05:36:20;;;;;;;;;54.25;40.50;;;;;-143.57;100.00;65101.44;5118062;27;45504;-41
2023/05/14 05:38:45;;;;;;;;;61.50;43.00;;;;;-143.57;100.00;65101.44;5117816;27;46486;-40
2023/05/14 05:41:11;;;;;;;;;61.75;42.00;;;;;-143.57;100.00;65101.44;5117462;27;48754;-41
2023/05/14 05:43:36;;;;;;;;;50.75;42.00;;;;;-143.57;100.00;65101.44;5117761;27;45720;-41
2023/05/14 05:46:01;;;;;;;;;56.00;42.25;;;;;-143.57;100.00;65101.44;5117506;27;45432;-43
2023/05/14 05:48:27;;;;;;;;;54.25;43.00;;;;;-143.57;100.00;65101.44;5117435;27;48152;-43
2023/05/14 05:50:52;;;;;;;;;47.00;38.75;;;;;-143.57;100.00;65101.44;5117643;27;45365;-42
2023/05/14 05:53:18;;;;;;;;;58.00;41.00;;;;;-143.57;100.00;65101.44;5117875;27;45392;-41
2023/05/14 05:55:43;;;;;;;;;48.50;39.00;;;;;-143.57;100.00;65101.44;5117822;27;45278;-43
2023/05/14 05:58:09;;;;;;;;;53.00;39.75;;;;;-143.57;100.00;65101.44;5098942;27;46199;-43
2023/05/14 06:00:34;;;;;;;;;54.25;40.00;;;;;-143.57;100.00;65101.44;5117431;27;45434;-41
2023/05/14 06:03:00;;;;;;;;;47.00;39.00;;;;;-143.57;100.00;65101.44;5117636;27;45382;-41
2023/05/14 06:05:25;;;;;;;;;53.25;39.50;;;;;-143.57;100.00;65101.44;5117792;27;45435;-40
2023/05/14 06:07:52;;;;;;;;;56.00;41.25;;;;;-143.57;100.00;65101.44;5117121;27;46090;-42
2023/05/14 06:10:18;;;;;;;;;52.75;41.25;;;;;-143.57;100.00;65101.44;5117253;27;45341;-42
2023/05/14 06:12:43;;;;;;;;;49.75;36.00;;;;;-143.57;100.00;65101.44;5117392;27;45418;-41
2023/05/14 06:15:09;;;;;;;;;49.00;39.33;;;;;-143.57;100.00;65101.44;5117438;27;45276;-41
2023/05/14 06:17:34;;;;;;;;;56.67;38.00;;;;;-143.57;100.00;65101.44;5117141;27;46338;-42
2023/05/14 06:20:00;;;;;;;;;48.75;39.25;;;;;-143.57;100.00;65101.44;5117095;27;45530;-41
2023/05/14 06:22:25;;;;;;;;;45.75;35.00;;;;;-143.57;100.00;65101.44;5117618;27;45382;-40
2023/05/14 06:24:50;;;;;;;;;43.67;35.33;;;;;-143.57;100.00;65101.44;5119850;27;45573;-40
2023/05/14 06:27:16;;;;;;;;;47.67;39.00;;;;;-143.57;100.00;65101.44;5120644;27;46985;-43
2023/05/14 06:29:41;;;;;;;;;44.67;37.33;;;;;-143.57;100.00;65101.44;5120619;27;45420;-43
2023/05/14 06:32:07;;;;;;;;;51.00;39.00;;;;;-143.57;100.00;65101.44;5120482;27;45372;-41
2023/05/14 06:34:33;;;;;;;;;47.67;38.67;;;;;-143.57;100.00;65101.44;5121082;27;45357;-40
2023/05/14 06:36:59;;;;;;;;;43.33;35.67;;;;;-143.57;100.00;65101.44;5119700;27;45329;-42
2023/05/14 06:39:24;;;;;;;;;48.75;38.50;;;;;-143.57;100.00;65101.44;5120468;27;45388;-40
2023/05/14 06:41:49;;;;;;;;;53.25;40.50;;;;;-143.57;100.00;65101.44;5120662;27;45247;-40
2023/05/14 06:44:17;;;;;;;;;56.00;42.50;;;;;-143.57;100.00;65101.44;5120485;27;45281;-41
2023/05/14 06:46:42;;;;;;;;;50.50;36.50;;;;;-143.57;100.00;65101.44;5120345;27;46117;-43
2023/05/14 06:49:07;;;;;;;;;52.75;40.75;;;;;-143.57;100.00;65101.44;5120205;27;45289;-41
2023/05/14 06:51:33;;;;;;;;;57.75;41.00;;;;;-143.57;100.00;65101.44;5120322;27;45693;-41
2023/05/14 06:53:58;;;;;;;;;52.00;39.75;;;;;-143.57;100.00;65101.44;5120769;27;45213;-42
2023/05/14 06:56:24;;;;;;;;;47.33;35.00;;;;;-143.57;100.00;65101.44;5120065;27;54617;-42
2023/05/14 06:58:49;;;;;;;;;50.00;38.00;;;;;-143.57;100.00;65101.44;5120380;27;45275;-42
2023/05/14 07:01:15;;;;;;;;;58.25;40.00;;;;;-143.57;100.00;65101.44;5120271;27;45331;-40
2023/05/14 07:03:41;;;;;;;;;51.75;39.50;;;;;-143.57;100.00;65101.44;5120496;27;45321;-43
2023/05/14 07:06:06;;;;;;;;;50.00;38.00;;;;;-143.57;100.00;65101.44;5120011;27;45444;-41
2023/05/14 07:08:31;;;;;;;;;51.00;36.67;;;;;-143.57;100.00;65101.44;5120233;27;45454;-43
2023/05/14 07:10:57;;;;;;;;;46.33;35.67;;;;;-143.57;100.00;65101.44;5120121;27;45646;-43
2023/05/14 07:13:23;;;;;;;;;52.25;40.25;;;;;-143.57;100.00;65101.44;5120503;27;45479;-41
2023/05/14 07:15:48;;;;;;;;;52.75;39.75;;;;;-143.57;100.00;65101.44;5119676;27;46917;-41
2023/05/14 07:18:14;;;;;;;;;48.33;35.00;;;;;-143.57;100.00;65101.44;5120049;27;45413;-41
2023/05/14 07:20:39;;;;;;;;;47.00;39.00;;;;;-143.57;100.00;65101.44;5120061;27;45238;-42
2023/05/14 07:23:04;;;;;;;;;53.50;39.50;;;;;-143.57;100.00;65101.44;5120044;27;45793;-41
2023/05/14 07:25:31;;;;;;;;;53.33;39.00;;;;;-143.57;100.00;65101.44;5119987;27;46031;-42
2023/05/14 07:27:56;;;;;;;;;49.33;38.33;;;;;-143.57;100.00;65101.44;5119852;27;45497;-42
2023/05/14 07:30:22;;;;;;;;;51.67;38.00;;;;;-143.57;100.00;65101.44;5120038;27;45473;-41
2023/05/14 07:32:47;;;;;;;;;47.00;38.33;;;;;-143.57;100.00;65101.44;5120029;27;45345;-42
2023/05/14 07:35:13;;;;;;;;;54.00;37.67;;;;;-143.57;100.00;65101.44;5119212;27;45266;-41
2023/05/14 07:37:38;;;;;;;;;61.00;41.25;;;;;-143.57;100.00;65101.44;5119946;27;45336;-41
2023/05/14 07:40:04;;;;;;;;;49.00;38.00;;;;;-143.57;100.00;65101.44;5120029;27;45241;-44
2023/05/14 07:42:29;;;;;;;;;56.00;40.50;;;;;-143.57;100.00;65101.44;5120193;27;45164;-43
2023/05/14 07:44:55;;;;;;;;;50.00;37.00;;;;;-143.57;100.00;65101.44;5119603;27;46196;-42
2023/05/14 07:47:20;;;;;;;;;56.67;44.33;;;;;-143.57;100.00;65101.44;5119486;27;45314;-43
2023/05/14 07:49:45;;;;;;;;;57.00;43.50;;;;;-143.57;100.00;65101.44;5118173;27;45464;-43
2023/05/14 07:52:10;;;;;;;;;54.75;42.00;;;;;-143.57;100.00;65101.44;5119985;27;45405;-42
2023/05/14 07:54:36;;;;;;;;;53.33;40.00;;;;;-143.57;100.00;65101.44;5118806;27;46231;-45
2023/05/14 07:57:01;;;;;;;;;56.00;41.75;;;;;-143.57;100.00;65101.44;5119509;27;47002;-45
2023/05/14 07:59:26;;;;;;;;;54.25;38.50;;;;;-143.57;100.00;65101.44;5119308;27;45416;-41
2023/05/14 08:01:52;;;;;;;;;55.67;40.33;;;;;-143.57;100.00;65101.44;5110233;27;45398;-42
2023/05/14 08:04:17;;;;;;;;;49.67;37.00;;;;;-143.57;100.00;65101.44;5098627;27;45452;-42
2023/05/14 08:06:42;;;;;;;;;53.00;37.67;;;;;-143.57;100.00;65101.44;5098731;27;45552;-45
2023/05/14 08:09:08;;;;;;;;;56.33;40.00;;;;;-143.57;100.00;65101.44;5098393;27;45328;-44
2023/05/14 08:11:34;;;;;;;;;55.00;40.33;;;;;-143.57;100.00;65101.44;5080475;27;45471;-43
2023/05/14 08:13:59;;;;;;;;;58.00;42.33;;;;;-143.57;100.00;65101.44;5098331;27;47051;-46
2023/05/14 08:16:25;;;;;;;;;55.33;37.00;;;;;-143.57;100.00;65101.44;5098304;27;45427;-42
2023/05/14 08:18:50;;;;;;;;;60.00;40.67;;;;;-143.57;100.00;65101.44;5097911;27;45546;-41
2023/05/14 08:21:16;;;;;;;;;53.33;39.00;;;;;-143.57;100.00;65101.44;5098456;27;45413;-44
2023/05/14 08:23:42;;;;;;;;;52.33;42.00;;;;;-143.57;100.00;65101.44;5098329;27;46393;-42
2023/05/14 08:26:07;;;;;;;;;53.00;39.67;;;;;-143.57;100.00;65101.44;5098301;27;45400;-42
2023/05/14 08:28:33;;;;;;;;;53.67;39.33;;;;;-143.57;100.00;65101.44;5098189;27;45534;-42
2023/05/14 08:30:58;;;;;;;;;56.00;38.33;;;;;-143.57;100.00;65101.44;5098720;27;45313;-43
2023/05/14 08:33:23;;;;;;;;;54.67;38.67;;;;;-143.57;100.00;65101.44;5079344;27;46826;-44
2023/05/14 08:35:51;;;;;;;;;55.75;43.00;;;;;-143.57;100.00;65101.44;5098184;27;45546;-42
2023/05/14 08:38:17;;;;;;;;;57.00;40.33;;;;;-143.57;100.00;65101.44;5098231;27;45361;-42
2023/05/14 08:40:55;;;;;;;;;56.67;40.33;;;;;-143.57;100.00;65101.44;5080099;27;45322;-42
2023/05/14 08:43:25;;;;;;;;;53.00;41.33;;;;;-143.57;100.00;65101.44;5098350;27;45519;-45
2023/05/14 08:45:56;;;;;;;;;47.67;38.00;;;;;-143.57;100.00;65101.44;5098120;27;45368;-44
2023/05/14 08:48:23;;;;;;;;;55.00;41.00;;;;;-143.57;100.00;65101.44;5098015;27;45470;-43
2023/05/14 08:50:48;;;;;;;;;52.33;40.33;;;;;-143.57;100.00;65101.44;5098181;27;45462;-42
2023/05/14 08:53:14;;;;;;;;;36.00;26.00;;;;;-143.57;100.00;65101.44;5097777;27;46308;-43
2023/05/14 08:55:39;;;;;;;;;50.00;39.00;;;;;-143.57;100.00;65101.44;5098018;27;45409;-42
2023/05/14 08:58:04;;;;;;;;;58.67;41.00;;;;;-143.57;100.00;65101.44;5098096;27;45364;-43
2023/05/14 09:00:30;;;;;;;;;52.67;39.00;;;;;-143.57;100.00;65101.44;5098173;27;45403;-43
2023/05/14 09:02:56;;;;;;;;;58.33;43.33;;;;;-143.57;100.00;65101.44;5097732;27;45360;-45
2023/05/14 09:05:22;;;;;;;;;53.67;38.67;;;;;-143.57;100.00;65101.44;5097793;27;45255;-46
2023/05/14 09:07:49;;;;;;;;;49.33;38.00;;;;;-143.57;100.00;65101.44;5097703;27;45324;-44
2023/05/14 09:10:16;;;;;;;;;53.67;39.67;;;;;-143.57;100.00;65101.44;5097578;27;45367;-45
2023/05/14 09:12:41;;;;;;;;;49.33;38.67;;;;;-143.57;100.00;65101.44;5097509;27;47074;-44
2023/05/14 09:15:07;;;;;;;;;49.33;37.00;;;;;-143.57;100.00;65101.44;5097487;27;45363;-45
2023/05/14 09:17:33;;;;;;;;;48.67;38.67;;;;;-143.57;100.00;65101.44;5097738;27;45901;-41
2023/05/14 09:19:58;;;;;;;;;56.33;40.67;;;;;-143.57;100.00;65101.44;5079377;27;45250;-44
2023/05/14 09:22:24;;;;;;;;;52.33;38.67;;;;;-143.57;100.00;65101.44;5097599;27;46041;-41
2023/05/14 09:25:04;;;;;;;;;55.67;42.33;;;;;-143.57;100.00;65101.44;5095550;27;45378;-43
2023/05/14 09:27:31;;;;;;;;;55.33;37.00;;;;;-143.57;100.00;65101.44;5097423;27;45320;-45
2023/05/14 09:30:04;;;;;;;;;52.00;38.33;;;;;-143.57;100.00;65101.44;5097499;27;45505;-43
2023/05/14 09:32:35;;;;;;;;;47.00;35.00;;;;;-143.57;100.00;65101.44;5096705;27;46223;-42
2023/05/14 09:35:16;;;;;;;;;52.33;38.00;;;;;-143.57;100.00;65101.44;5096838;27;45428;-45
2023/05/14 09:37:46;;;;;;;;;51.67;38.33;;;;;-143.57;100.00;65101.44;5097286;27;45285;-43
2023/05/14 09:40:12;;;;;;;;;50.67;38.67;;;;;-143.57;100.00;65101.44;5097348;27;45326;-44
2023/05/14 09:42:38;;;;;;;;;49.00;38.33;;;;;-143.57;100.00;65101.44;5096886;27;46896;-44
2023/05/14 09:45:06;;;;;;;;;54.33;36.33;;;;;-143.57;100.00;65101.44;5097219;27;45435;-44
2023/05/14 09:47:32;;;;;;;;;55.33;37.67;;;;;-143.57;100.00;65101.44;5097105;27;45256;-43
2023/05/14 09:49:57;;;;;;;;;55.67;37.67;;;;;-143.57;100.00;65101.44;5096974;27;45531;-43
2023/05/14 09:52:23;;;;;;;;;52.33;37.00;;;;;-143.57;100.00;65101.44;5097259;27;45207;-43
2023/05/14 09:54:51;;;;;;;;;51.00;37.33;;;;;-143.57;100.00;65101.44;5096838;27;45362;-42
2023/05/14 09:57:16;;;;;;;;;50.33;37.33;;;;;-143.57;100.00;65101.44;5097255;27;45302;-45
2023/05/14 09:59:41;;;;;;;;;52.33;37.67;;;;;-143.57;100.00;65101.44;5096415;27;45387;-45
2023/05/14 10:02:20;;;;;;;;;50.00;37.00;;;;;-143.57;100.00;65101.44;5096765;27;47107;-42
2023/05/14 10:04:47;;;;;;;;;52.67;38.33;;;;;-143.57;100.00;65101.44;5096808;27;45305;-42
2023/05/14 10:07:13;;;;;;;;;46.00;37.67;;;;;-143.57;100.00;65101.44;5096644;27;45368;-42
2023/05/14 10:09:41;;;;;;;;;56.67;38.00;;;;;-143.57;100.00;65101.44;5096911;27;45341;-42
2023/05/14 10:12:07;;;;;;;;;46.33;36.00;;;;;-143.57;100.00;65101.44;5096638;27;45441;-44
2023/05/14 10:14:39;;;;;;;;;51.00;40.33;;;;;-143.57;100.00;65101.44;5096520;27;45451;-40
2023/05/14 10:17:06;;;;;;;;;50.67;37.00;;;;;-143.57;100.00;65101.44;5095923;27;45306;-42
2023/05/14 10:19:36;;;;;;;;;52.67;37.00;;;;;-143.57;100.00;65101.44;5096710;27;45332;-42
2023/05/14 10:22:06;;;;;;;;;51.33;33.67;;;;;-143.57;100.00;65101.44;5096399;27;45449;-45
2023/05/14 10:24:33;;;;;;;;;49.00;38.00;;;;;-143.57;100.00;65101.44;5078274;27;45354;-42
2023/05/14 10:27:00;;;;;;;;;49.00;37.00;;;;;-143.57;100.00;65101.44;5096624;27;45487;-44
2023/05/14 10:29:36;;;;;;;;;52.33;38.00;;;;;-143.57;100.00;65101.44;5096666;27;45282;-43
2023/05/14 10:32:06;;;;;;;;;44.67;37.00;;;;;-143.57;100.00;65101.44;5096359;27;46221;-43
2023/05/14 10:34:37;;;;;;;;;42.00;35.00;;;;;-143.57;100.00;65101.44;5096220;27;45444;-43
2023/05/14 10:37:08;;;;;;;;;45.33;36.33;;;;;-143.57;100.00;65101.44;5096619;27;45329;-44
2023/05/14 10:39:42;;;;;;;;;50.33;35.33;;;;;-143.57;100.00;65101.44;5096571;27;45306;-43
2023/05/14 10:42:11;;;;;;;;;46.67;38.67;;;;;-143.57;100.00;65101.44;5096159;27;47089;-44
2023/05/14 10:44:44;;;;;;;;;41.67;35.33;;;;;-143.57;100.00;65101.44;5096663;27;45296;-43
2023/05/14 10:47:10;;;;;;;;;46.33;36.33;;;;;-143.57;100.00;65101.44;5096302;27;45366;-42
2023/05/14 10:49:35;;;;;;;;;42.33;34.33;;;;;-143.57;100.00;65101.44;5096256;27;45375;-43
2023/05/14 10:52:01;;;;;;;;;49.00;36.00;;;;;-143.57;100.00;65101.44;5096140;27;46285;-43